Nearby METAR Reports

 

KRDU - Raleigh-Durham, NC, USA
Distance from station: NE 9mi, 14km
Updated: Sun, 04-Dec-2022 6:51am EST
Mostly cloudy
Mostly cloudy
 Wind from calm
Wind: Calm
Temperature: 41°F , 5°C
Dew Point: 32°F , 0°C
Humidity: 70%
Barometer: 1025.1 hPa
Clouds: Mostly cloudy
Visibility: 10 miles , 16 km
Cloud details: Mostly cloudy 15000 ft
2022/12/04 11:51 KRDU 041151Z 00000KT 10SM BKN150 05/00 A3027 RMK AO2 SLP249 70021 T00500000 10117 20039 53016
KLHZ - Louisburg, NC, USA
Distance from station: N 9mi, 14km
Updated: Sun, 04-Dec-2022 6:35am EST
Clear
Clear
 Wind from calm
Wind: Calm
Temperature: 37°F , 3°C
Dew Point: 32°F , 0°C
Humidity: 81%
Barometer: 1025.1 hPa
Clouds: Clear
Visibility: 10 miles , 16 km
2022/12/04 11:35 KLHZ 041135Z AUTO 00000KT 10SM CLR 03/00 A3027 RMK AO2
 
KJNX - Smithfield, NC, USA
Distance from station: NNW 14mi, 23km
Updated: Sun, 04-Dec-2022 6:35am EST
Clear
Clear
 Wind from N
Wind: N 6 mph , 9 km/h
Temperature: 45°F , 7°C
Wind Chill: 42°F , 6°C
Dew Point: 36°F , 2°C
Humidity: 71%
Barometer: 1024.7 hPa
Clouds: Clear
Visibility: 10 miles , 16 km
2022/12/04 11:35 KJNX 041135Z AUTO 35005KT 10SM CLR 07/02 A3026 RMK AO2
KHRJ - Erwin, NC, USA
Distance from station: ENE 12mi, 19km
Updated: Sun, 04-Dec-2022 6:35am EST
Clear
Clear
 Wind from N
Wind: N 5 mph , 7 km/h
Temperature: 43°F , 6°C
Wind Chill: 40°F , 4°C
Dew Point: 39°F , 4°C
Humidity: 87%
Barometer: 1025.1 hPa
Clouds: Clear
Visibility: 10 miles , 16 km
2022/12/04 11:35 KHRJ 041135Z AUTO 01004KT 10SM CLR 06/04 A3027 RMK AO2 T00630038
 
KTTA - Sanford, NC, USA
Distance from station: NNW 31mi, 50km
Updated: Sun, 04-Dec-2022 6:35am EST
Fog, Overcast
Fog, Overcast
 Wind from calm
Wind: Calm
Temperature: 37°F , 3°C
Dew Point: 37°F , 3°C
Humidity: 100%
Barometer: 1024.7 hPa
Summary: Fog
Clouds: Overcast
Visibility: 1/4 mile , 0.4 km
Cloud details: Overcast 200 ft
2022/12/04 11:35 KTTA 041135Z AUTO 00000KT 1/4SM FG VV002 03/03 A3026 RMK AO2 T00260026
KSCR - Siler City, NC, USA
Distance from station: NW 21mi, 34km
Updated: Sun, 04-Dec-2022 6:35am EST
Clear
Clear
 Wind from calm
Wind: Calm
Temperature: 34°F , 1°C
Dew Point: 34°F , 1°C
Humidity: 100%
Barometer: 1024.7 hPa
Clouds: Clear
Visibility: 10 miles , 16 km
2022/12/04 11:35 KSCR 041135Z AUTO 00000KT 10SM CLR 01/01 A3026 RMK AO2 T00140014